Bay City, TX

7:29 AM CDT on May 27, 2017 (GMT -0500)
Bay City

Weather History for KBYY - March, 2013

Change the Weather History Date:

Thursday, March 28, 2013

  Actual Average (KLBX) Record (KLBX)
Temperature  
Mean Temperature 66 °F -  
Max Temperature 74 °F 71 °F 84 °F (2017)
Min Temperature 59 °F 56 °F 41 °F (2005)
Cooling Degree Days 2    
Growing Degree Days 16 (Base 50)    
Moisture  
Dew Point 58 °F    
Average Humidity 76    
Maximum Humidity 100    
Minimum Humidity 55    
Precipitation  
Precipitation 0.00 in - - ()
Sea Level Pressure  
Sea Level Pressure 30.21 in    
Wind  
Wind Speed 7 mph (ESE)    
Max Wind Speed 16 mph    
Max Gust Speed 21 mph    
Visibility 10 miles    
Events      
Averages and records for this station are not official NWS values.
T = Trace of Precipitation, MM = Missing Value Source: NWS Daily Summary

Daily Weather History Graph

Daily Weather History Graph

Search for Another Location

Airport or City:

Trip Planner

Search our weather history database for the weather conditions in past years. The results will help you decide how hot, cold, wet, or windy it might be!

Date:

Astronomy

Mar. 28, 2013 Rise Set
Actual Time 7:17 AM CDT 7:39 PM CDT
Civil Twilight 6:53 AM CDT 8:03 PM CDT
Nautical Twilight 6:26 AM CDT 8:31 PM CDT
Astronomical Twilight 5:58 AM CDT 8:59 PM CDT
Moon 9:20 PM CDT (3/28) 7:55 AM CDT (3/28)
Length of Visible Light 13h 09m
Length of Day
12h 21m
Full, 98% of the Moon is Illuminated
Mar 28
Full
Apr 2
Last Quarter
Apr 10
New
Apr 18
First Quarter
Apr 25
Full

Hourly Weather History & Observations

Time (CDT) Temp. Dew Point Humidity Pressure Visibility Wind Dir Wind Speed Gust Speed Precip Events Conditions
12:15 AM 62.1 °F 53.8 °F 74% 30.24 in 10.0 mi SE 5.8 mph - N/A   Overcast
12:35 AM 62.2 °F 54.3 °F 75% 30.23 in 10.0 mi SE 4.6 mph - N/A   Overcast
12:55 AM 62.2 °F 54.5 °F 76% 30.23 in 10.0 mi SE 4.6 mph - N/A   Overcast
1:15 AM 62.2 °F 54.9 °F 77% 30.22 in 10.0 mi SE 4.6 mph - N/A   Overcast
1:35 AM 62.1 °F 55.0 °F 78% 30.22 in 10.0 mi ESE 4.6 mph - N/A   Overcast
1:55 AM 61.9 °F 55.2 °F 79% 30.22 in 10.0 mi SE 4.6 mph - N/A   Overcast
2:15 AM 62.1 °F 55.4 °F 79% 30.21 in 10.0 mi SE 5.8 mph - N/A   Overcast
2:35 AM 62.2 °F 55.6 °F 79% 30.21 in 10.0 mi SE 5.8 mph - N/A   Overcast
2:55 AM 62.6 °F 55.8 °F 78% 30.20 in 10.0 mi SE 5.8 mph - N/A   Overcast
3:15 AM 62.8 °F 56.1 °F 79% 30.20 in 10.0 mi SE 5.8 mph - N/A   Overcast
3:35 AM 62.2 °F 56.3 °F 81% 30.19 in 10.0 mi ESE 4.6 mph - N/A   Overcast
3:55 AM 61.7 °F 56.3 °F 82% 30.19 in 10.0 mi SE 3.5 mph - N/A   Overcast
4:15 AM 61.5 °F 56.3 °F 83% 30.19 in 10.0 mi ESE 3.5 mph - N/A   Overcast
4:35 AM 61.2 °F 56.5 °F 85% 30.19 in 10.0 mi ESE 3.5 mph - N/A   Overcast
4:55 AM 60.8 °F 56.7 °F 86% 30.19 in 10.0 mi ESE 3.5 mph - N/A   Overcast
5:15 AM 60.4 °F 56.7 °F 87% 30.19 in 10.0 mi East 4.6 mph - N/A   Overcast
5:35 AM 59.9 °F 56.5 °F 88% 30.19 in 10.0 mi East 5.8 mph - N/A   Overcast
5:55 AM 59.9 °F 56.8 °F 90% 30.19 in 10.0 mi ESE 4.6 mph - N/A   Mostly Cloudy
6:15 AM 60.1 °F 57.4 °F 91% 30.19 in 10.0 mi East 4.6 mph - N/A   Overcast
6:35 AM 59.7 °F 58.1 °F 94% 30.19 in 10.0 mi East 4.6 mph - N/A   Overcast
6:55 AM 59.4 °F 59.4 °F 100% 30.20 in 10.0 mi East 4.6 mph - N/A   Overcast
7:15 AM 59.9 °F 59.9 °F 100% 30.21 in 10.0 mi East 3.5 mph - N/A   Overcast
7:35 AM 60.6 °F 60.6 °F 100% 30.21 in 10.0 mi East 4.6 mph - N/A   Overcast
7:55 AM 61.3 °F 61.3 °F 100% 30.22 in 10.0 mi East 4.6 mph - N/A   Overcast
8:15 AM 62.2 °F 62.2 °F 100% 30.22 in 10.0 mi East 4.6 mph - N/A   Mostly Cloudy
8:35 AM 63.5 °F 61.9 °F 94% 30.23 in 10.0 mi ESE 5.8 mph - N/A   Mostly Cloudy
8:55 AM 65.3 °F 60.1 °F 83% 30.23 in 10.0 mi ESE 6.9 mph - N/A   Overcast
9:15 AM 67.3 °F 60.1 °F 78% 30.24 in 10.0 mi ESE 8.1 mph - N/A   Mostly Cloudy
9:35 AM 68.9 °F 59.5 °F 72% 30.24 in 10.0 mi SE 10.4 mph - N/A   Mostly Cloudy
9:55 AM 70.3 °F 59.2 °F 68% 30.24 in 10.0 mi SE 11.5 mph 16.1 mph N/A   Overcast
10:15 AM 71.2 °F 59.0 °F 65% 30.24 in 10.0 mi SE 10.4 mph - N/A   Overcast
10:35 AM 71.8 °F 58.8 °F 64% 30.25 in 10.0 mi SE 10.4 mph 18.4 mph N/A   Overcast
10:55 AM 72.3 °F 58.5 °F 62% 30.25 in 10.0 mi SE 13.8 mph - N/A   Overcast
11:15 AM 72.7 °F 58.1 °F 60% 30.25 in 10.0 mi SE 10.4 mph - N/A   Overcast
11:35 AM 73.6 °F 58.1 °F 58% 30.25 in 10.0 mi SE 15.0 mph 18.4 mph N/A   Overcast
11:55 AM 73.8 °F 57.9 °F 58% 30.25 in 10.0 mi SSE 12.7 mph - N/A   Overcast
12:15 PM 73.2 °F 57.4 °F 57% 30.25 in 10.0 mi SSE 13.8 mph - N/A   Overcast
12:35 PM 73.2 °F 57.4 °F 57% 30.24 in 10.0 mi SSE 10.4 mph - N/A   Overcast
12:55 PM 72.9 °F 57.6 °F 59% 30.24 in 10.0 mi SE 13.8 mph - N/A   Overcast
1:15 PM 73.2 °F 57.9 °F 59% 30.24 in 10.0 mi SSE 13.8 mph - N/A   Overcast
1:35 PM 73.6 °F 57.9 °F 58% 30.24 in 10.0 mi SSE 13.8 mph 18.4 mph N/A   Overcast
1:55 PM 73.8 °F 57.9 °F 58% 30.23 in 10.0 mi SE 15.0 mph 20.7 mph N/A   Overcast
2:15 PM 73.6 °F 57.7 °F 58% 30.23 in 10.0 mi SSE 15.0 mph - N/A   Overcast
2:35 PM 74.1 °F 57.4 °F 56% 30.22 in 10.0 mi SE 15.0 mph - N/A   Overcast
2:55 PM 74.1 °F 57.2 °F 55% 30.21 in 10.0 mi SE 16.1 mph 19.6 mph N/A   Overcast
3:15 PM 73.6 °F 57.2 °F 56% 30.21 in 10.0 mi SE 13.8 mph - N/A   Overcast
3:35 PM 73.6 °F 57.7 °F 58% 30.21 in 10.0 mi SSE 13.8 mph 20.7 mph N/A   Overcast
3:55 PM 73.6 °F 57.6 °F 57% 30.20 in 10.0 mi SE 15.0 mph 18.4 mph N/A   Overcast
4:15 PM 74.3 °F 57.9 °F 57% 30.19 in 10.0 mi SE 12.7 mph - N/A   Overcast
4:35 PM 73.6 °F 57.7 °F 58% 30.19 in 10.0 mi SE 13.8 mph - N/A   Overcast
4:55 PM 72.9 °F 57.4 °F 58% 30.19 in 10.0 mi SE 13.8 mph - N/A   Overcast
5:15 PM 72.9 °F 57.4 °F 58% 30.19 in 10.0 mi SE 15.0 mph - N/A   Overcast
5:35 PM 72.7 °F 57.4 °F 59% 30.18 in 10.0 mi SE 10.4 mph 17.3 mph N/A   Mostly Cloudy
5:55 PM 72.3 °F 57.6 °F 60% 30.18 in 10.0 mi SE 13.8 mph 19.6 mph N/A   Mostly Cloudy
6:15 PM 71.1 °F 57.7 °F 63% 30.19 in 10.0 mi SE 10.4 mph - N/A   Mostly Cloudy
6:35 PM 70.2 °F 57.9 °F 65% 30.19 in 10.0 mi ESE 10.4 mph - N/A   Overcast
6:55 PM 69.6 °F 58.5 °F 68% 30.19 in 10.0 mi ESE 12.7 mph - N/A   Overcast
7:15 PM 68.5 °F 58.5 °F 70% 30.19 in 10.0 mi ESE 13.8 mph - N/A   Overcast
7:35 PM 67.6 °F 58.5 °F 72% 30.19 in 10.0 mi ESE 8.1 mph - N/A   Overcast
7:55 PM 66.4 °F 58.3 °F 75% 30.19 in 10.0 mi ESE 9.2 mph - N/A   Overcast
8:15 PM 65.7 °F 58.1 °F 77% 30.20 in 10.0 mi ESE 8.1 mph - N/A   Mostly Cloudy
8:35 PM 64.8 °F 57.9 °F 78% 30.20 in 10.0 mi ESE 9.2 mph - N/A   Mostly Cloudy
8:55 PM 63.9 °F 57.6 °F 80% 30.21 in 10.0 mi ESE 5.8 mph - N/A   Scattered Clouds
9:15 PM 63.0 °F 57.6 °F 82% 30.21 in 10.0 mi ESE 4.6 mph - N/A   Clear
9:35 PM 61.9 °F 57.6 °F 86% 30.21 in 10.0 mi ESE 5.8 mph - N/A   Clear
9:55 PM 60.8 °F 57.4 °F 88% 30.22 in 10.0 mi East 4.6 mph - N/A   Clear
10:15 PM 59.9 °F 58.3 °F 94% 30.22 in 10.0 mi ESE 4.6 mph - N/A   Clear
10:35 PM 59.4 °F 59.4 °F 100% 30.21 in 10.0 mi ESE 5.8 mph - N/A   Clear
10:55 PM 59.5 °F 59.5 °F 100% 30.22 in 10.0 mi East 5.8 mph - N/A   Clear
11:15 PM 59.0 °F 59.0 °F 100% 30.21 in 10.0 mi East 6.9 mph - N/A   Clear
11:35 PM 59.7 °F 59.7 °F 100% 30.21 in 10.0 mi East 5.8 mph - N/A   Clear
11:55 PM 59.5 °F 59.5 °F 100% 30.21 in 10.0 mi ESE 5.8 mph - N/A   Clear